createdAt,value
2023-03-18T00:00:51.454Z,101092.72
2023-03-18T00:03:18.960Z,101102.56
2023-03-18T00:05:46.565Z,101107.91
2023-03-18T00:08:13.997Z,101094.81
2023-03-18T00:10:41.513Z,101101.72
2023-03-18T00:13:08.853Z,101098.16
2023-03-18T00:15:37.248Z,101110.44
2023-03-18T00:18:04.963Z,101111.31
2023-03-18T00:20:41.752Z,101106.97
2023-03-18T00:23:09.598Z,101100.78
2023-03-18T00:25:37.986Z,101096.72
2023-03-18T00:28:07.144Z,101095.19
2023-03-18T00:30:38.673Z,101101.25
2023-03-18T00:33:06.276Z,101096.81
2023-03-18T00:35:34.537Z,101087.03
2023-03-18T00:38:04.055Z,101095.78
2023-03-18T00:40:43.351Z,101080.81
2023-03-18T00:43:12.648Z,101089.69
2023-03-18T00:45:41.162Z,101078.41
2023-03-18T00:48:10.936Z,101071.25
2023-03-18T00:50:38.337Z,101073.03
2023-03-18T00:53:05.885Z,101083.69
2023-03-18T00:55:33.492Z,101081.03
2023-03-18T00:58:01.700Z,101067.00
2023-03-18T01:00:29.959Z,101074.00
2023-03-18T01:02:57.683Z,101068.69
2023-03-18T01:05:25.084Z,101069.47
2023-03-18T01:07:53.164Z,101064.22
2023-03-18T01:10:20.757Z,101066.81
2023-03-18T01:12:48.276Z,101067.66
2023-03-18T01:15:18.790Z,101050.16
2023-03-18T01:17:46.856Z,101044.91
2023-03-18T01:20:17.983Z,101052.94
2023-03-18T01:22:47.753Z,101052.97
2023-03-18T01:25:16.430Z,101046.03
2023-03-18T01:27:47.913Z,101048.59
2023-03-18T01:30:16.028Z,101046.81
2023-03-18T01:32:44.078Z,101030.09
2023-03-18T01:35:12.704Z,101038.91
2023-03-18T01:37:46.839Z,101043.34
2023-03-18T01:40:16.348Z,101036.28
2023-03-18T01:42:53.129Z,101038.94
2023-03-18T01:45:28.681Z,101020.34
2023-03-18T01:47:58.728Z,101023.88
2023-03-18T01:50:32.324Z,101025.56
2023-03-18T01:53:06.899Z,101025.59
2023-03-18T01:55:36.297Z,101021.22
2023-03-18T01:58:10.201Z,101010.72
2023-03-18T02:00:44.785Z,101023.06
2023-03-18T02:03:13.055Z,101009.91
2023-03-18T02:05:43.405Z,101024.88
2023-03-18T02:08:10.786Z,101005.50
2023-03-18T02:10:38.721Z,101003.72
2023-03-18T02:13:09.905Z,101008.13
2023-03-18T02:15:51.281Z,100999.34
2023-03-18T02:18:33.816Z,101009.09
2023-03-18T02:21:22.669Z,100986.25
2023-03-18T02:24:20.789Z,100996.78
2023-03-18T02:27:19.272Z,100990.56
2023-03-18T02:29:48.379Z,100988.78
2023-03-18T02:32:22.324Z,100996.72
2023-03-18T02:34:50.945Z,100993.22
2023-03-18T02:37:18.411Z,100974.66
2023-03-18T02:39:45.822Z,100976.56
2023-03-18T02:42:14.858Z,100979.06
2023-03-18T02:44:49.197Z,100980.78
2023-03-18T02:47:35.373Z,100997.66
2023-03-18T02:50:03.846Z,100987.13
2023-03-18T02:52:31.667Z,100985.25
2023-03-18T02:54:59.314Z,100980.03
2023-03-18T02:57:28.731Z,100974.78
2023-03-18T02:59:57.621Z,100953.72
2023-03-18T03:02:27.206Z,100985.38
2023-03-18T03:04:54.791Z,100977.44
2023-03-18T03:07:26.631Z,100973.94
2023-03-18T03:09:54.808Z,100975.72
2023-03-18T03:12:23.044Z,100983.66
2023-03-18T03:14:54.831Z,100958.97
2023-03-18T03:17:22.765Z,100974.81
2023-03-18T03:19:51.113Z,100972.22
2023-03-18T03:22:18.548Z,100966.94
2023-03-18T03:24:47.603Z,100954.63
2023-03-18T03:27:15.017Z,100972.19
2023-03-18T03:29:43.480Z,100968.66
2023-03-18T03:32:11.953Z,100951.13
2023-03-18T03:34:39.521Z,100966.03
2023-03-18T03:37:07.185Z,100968.75
2023-03-18T03:39:34.584Z,100971.44
2023-03-18T03:42:02.016Z,100955.53
2023-03-18T03:44:30.279Z,100961.75
2023-03-18T03:46:57.734Z,100970.56
2023-03-18T03:49:25.232Z,100969.72
2023-03-18T03:51:52.672Z,100974.13
2023-03-18T03:54:21.645Z,100977.69
2023-03-18T03:56:49.175Z,100961.78
2023-03-18T03:59:17.674Z,100967.03
2023-03-18T04:02:02.282Z,100965.28
2023-03-18T04:04:33.562Z,100964.41
2023-03-18T04:07:03.254Z,100979.38
2023-03-18T04:09:30.760Z,100962.63
2023-03-18T04:11:58.393Z,100966.13
2023-03-18T04:14:26.281Z,100971.38
2023-03-18T04:16:56.028Z,100967.03
2023-03-18T04:19:24.715Z,100966.13
2023-03-18T04:21:59.105Z,100965.28
2023-03-18T04:24:26.604Z,100964.41
2023-03-18T04:26:53.986Z,100966.16
2023-03-18T04:29:22.718Z,100959.97
2023-03-18T04:31:50.961Z,100979.28
2023-03-18T04:34:18.879Z,100966.06
2023-03-18T04:36:46.597Z,100971.31
2023-03-18T04:39:14.563Z,100971.34
2023-03-18T04:41:42.541Z,100962.56
2023-03-18T04:44:11.943Z,100961.66
2023-03-18T04:46:45.326Z,100956.44
2023-03-18T04:49:13.676Z,100961.75
2023-03-18T04:51:42.404Z,100965.31
2023-03-18T04:54:19.076Z,100960.00
2023-03-18T04:56:47.469Z,100966.19
2023-03-18T04:59:15.237Z,100968.78
2023-03-18T05:01:42.988Z,100964.47
2023-03-18T05:04:11.545Z,100970.66
2023-03-18T05:06:46.766Z,100954.78
2023-03-18T05:09:15.366Z,100967.06
2023-03-18T05:11:44.861Z,100957.44
2023-03-18T05:14:20.439Z,100974.16
2023-03-18T05:16:49.665Z,100945.13
2023-03-18T05:19:18.092Z,100960.09
2023-03-18T05:21:54.046Z,100978.59
2023-03-18T05:24:22.133Z,100985.66
2023-03-18T05:26:49.642Z,100972.44
2023-03-18T05:29:19.143Z,100978.59
2023-03-18T05:31:58.027Z,100970.69
2023-03-18T05:34:27.239Z,100978.59
2023-03-18T05:36:56.000Z,100988.28
2023-03-18T05:39:23.740Z,100990.00
2023-03-18T05:41:52.477Z,100982.09
2023-03-18T05:44:26.309Z,100969.81
2023-03-18T05:46:55.481Z,100983.03
2023-03-18T05:49:48.328Z,100983.00
2023-03-18T05:52:21.760Z,100987.41
2023-03-18T05:54:51.239Z,100988.28
2023-03-18T05:57:25.111Z,100983.88
2023-03-18T05:59:58.403Z,100995.38
2023-03-18T06:02:27.808Z,100985.69
2023-03-18T06:04:55.595Z,100976.88
2023-03-18T06:07:24.440Z,100986.44
2023-03-18T06:09:52.375Z,100986.41
2023-03-18T06:12:23.081Z,100984.66
2023-03-18T06:14:50.670Z,100988.09
2023-03-18T06:17:18.751Z,100985.38
2023-03-18T06:19:46.566Z,100992.38
2023-03-18T06:22:15.384Z,100978.19
2023-03-18T06:24:43.565Z,100986.19
2023-03-18T06:27:11.400Z,100999.41
2023-03-18T06:29:42.792Z,100992.31
2023-03-18T06:32:14.035Z,100994.94
2023-03-18T06:34:41.955Z,100992.38
2023-03-18T06:37:10.886Z,100993.13
2023-03-18T06:39:40.767Z,101013.50
2023-03-18T06:42:10.974Z,101002.81
2023-03-18T06:44:50.557Z,101012.50
2023-03-18T06:47:24.562Z,100999.31
2023-03-18T06:49:56.970Z,101016.66
2023-03-18T06:52:31.953Z,101017.34
2023-03-18T06:55:06.600Z,100997.88
2023-03-18T06:57:37.918Z,101010.72
2023-03-18T07:00:07.054Z,101009.72
2023-03-18T07:02:39.395Z,101022.03
2023-03-18T07:05:08.592Z,101010.94
2023-03-18T07:07:37.810Z,101009.91
2023-03-18T07:10:07.481Z,101011.75
2023-03-18T07:12:35.292Z,101007.56
2023-03-18T07:15:03.997Z,101013.06
2023-03-18T07:17:31.759Z,101036.94
2023-03-18T07:19:59.114Z,100991.19
2023-03-18T07:22:26.644Z,101012.69
2023-03-18T07:24:54.943Z,100997.09
2023-03-18T07:27:23.599Z,101000.31
2023-03-18T07:29:51.583Z,101011.22
2023-03-18T07:32:19.883Z,101022.41
2023-03-18T07:34:48.494Z,101023.44
2023-03-18T07:37:16.962Z,101018.84
2023-03-18T07:39:44.372Z,101020.88
2023-03-18T07:42:11.879Z,101023.28
2023-03-18T07:44:45.998Z,101030.34
2023-03-18T07:47:15.106Z,101032.69
2023-03-18T07:49:42.568Z,101032.44
2023-03-18T07:52:10.520Z,101041.00
2023-03-18T07:54:37.991Z,101046.16
2023-03-18T07:57:07.006Z,101040.56
2023-03-18T07:59:34.465Z,101050.47
2023-03-18T08:02:02.603Z,101050.94
2023-03-18T08:04:30.866Z,101035.69
2023-03-18T08:06:58.531Z,101052.94
2023-03-18T08:09:27.730Z,101053.78
2023-03-18T08:11:55.154Z,101055.56
2023-03-18T08:14:22.511Z,101051.09
2023-03-18T08:16:49.944Z,101053.72
2023-03-18T08:19:17.349Z,101057.66
2023-03-18T08:21:45.126Z,101058.97
2023-03-18T08:24:12.600Z,101059.41
2023-03-18T08:26:40.098Z,101052.72
2023-03-18T08:29:07.485Z,101061.81
2023-03-18T08:31:35.384Z,101045.69
2023-03-18T08:34:02.785Z,101062.72
2023-03-18T08:36:30.278Z,101057.69
2023-03-18T08:38:57.691Z,101055.25
2023-03-18T08:41:26.220Z,101060.13
2023-03-18T08:43:55.499Z,101074.16
2023-03-18T08:46:23.521Z,101067.19
2023-03-18T08:48:51.530Z,101067.66
2023-03-18T08:51:18.957Z,101053.81
2023-03-18T08:53:46.323Z,101066.91
2023-03-18T08:56:14.837Z,101062.75
2023-03-18T08:58:42.261Z,101050.84
2023-03-18T09:01:11.847Z,101057.50
2023-03-18T09:03:39.487Z,101052.16
2023-03-18T09:06:07.574Z,101058.31
2023-03-18T09:08:34.963Z,101054.97
2023-03-18T09:11:02.469Z,101054.91
2023-03-18T09:13:29.938Z,101048.34
2023-03-18T09:15:58.127Z,101055.63
2023-03-18T09:18:25.749Z,101050.88
2023-03-18T09:20:53.695Z,101063.81
2023-03-18T09:23:21.468Z,101042.22
2023-03-18T09:25:50.282Z,101051.59
2023-03-18T09:28:17.942Z,101053.88
2023-03-18T09:30:45.315Z,101042.78
2023-03-18T09:33:13.785Z,101053.94
2023-03-18T09:35:41.298Z,101052.78
2023-03-18T09:38:14.400Z,101050.50
2023-03-18T09:40:49.986Z,101046.63
2023-03-18T09:43:32.293Z,101057.59
2023-03-18T09:46:28.429Z,101053.97
2023-03-18T09:49:00.629Z,101058.59
2023-03-18T09:51:41.837Z,101057.59
2023-03-18T09:54:17.214Z,101046.38
2023-03-18T09:56:45.678Z,101053.06
2023-03-18T09:59:42.205Z,101061.56
2023-03-18T10:02:22.316Z,101057.06
2023-03-18T10:04:56.226Z,101051.50
2023-03-18T10:07:29.681Z,101051.44
2023-03-18T10:10:09.575Z,101047.88
2023-03-18T10:12:43.528Z,101049.63
2023-03-18T10:15:14.796Z,101048.47
2023-03-18T10:18:10.887Z,101051.03
2023-03-18T10:21:12.353Z,101053.66
2023-03-18T10:23:47.876Z,101045.97
2023-03-18T10:26:24.504Z,101052.06
2023-03-18T10:29:01.704Z,101042.84
2023-03-18T10:31:46.399Z,101047.59
2023-03-18T10:34:19.172Z,101040.44
2023-03-18T10:36:51.149Z,101030.19
2023-03-18T10:39:23.434Z,101034.06
2023-03-18T10:41:53.575Z,101032.28
2023-03-18T10:44:24.210Z,101031.47
2023-03-18T10:47:15.513Z,101028.78
2023-03-18T10:49:51.168Z,101032.78
2023-03-18T10:52:37.483Z,101029.16
2023-03-18T10:55:17.971Z,101020.19
2023-03-18T10:57:45.784Z,101035.31
2023-03-18T11:00:28.014Z,101030.88
2023-03-18T11:02:57.142Z,101026.53
2023-03-18T11:05:28.567Z,101027.28
2023-03-18T11:08:04.970Z,101025.38
2023-03-18T11:10:40.515Z,101026.09
2023-03-18T11:13:08.056Z,101030.22
2023-03-18T11:15:44.301Z,101025.13
2023-03-18T11:18:19.607Z,101025.50
2023-03-18T11:20:55.469Z,101015.13
2023-03-18T11:23:48.643Z,101009.84
2023-03-18T11:26:24.019Z,101019.56
2023-03-18T11:28:59.876Z,101015.28
2023-03-18T11:31:28.127Z,101009.72
2023-03-18T11:34:08.847Z,101015.44
2023-03-18T11:36:38.069Z,101010.97
2023-03-18T11:39:06.884Z,101004.19
2023-03-18T11:41:37.988Z,101015.66
2023-03-18T11:44:17.856Z,101010.22
2023-03-18T11:46:50.180Z,101006.47
2023-03-18T11:49:23.716Z,100996.91
2023-03-18T11:52:09.553Z,101007.41
2023-03-18T11:55:01.021Z,100988.88
2023-03-18T11:57:55.029Z,100998.22
2023-03-18T12:00:55.910Z,100986.41
2023-03-18T12:03:45.583Z,100980.09
2023-03-18T12:06:26.527Z,100984.03
2023-03-18T12:09:01.177Z,100979.06
2023-03-18T12:11:38.538Z,100977.44
2023-03-18T12:14:14.357Z,100976.34
2023-03-18T12:16:48.807Z,100964.56
2023-03-18T12:20:00.231Z,100963.06
2023-03-18T12:22:50.600Z,100956.34
2023-03-18T12:25:32.936Z,100943.03
2023-03-18T12:28:28.916Z,100947.44
2023-03-18T12:31:14.097Z,100948.63
2023-03-18T12:33:47.720Z,100951.94
2023-03-18T12:36:39.807Z,100954.53
2023-03-18T12:39:26.489Z,100942.63
2023-03-18T12:42:16.796Z,100944.59
2023-03-18T12:45:02.258Z,100929.25
2023-03-18T12:47:48.083Z,100926.03
2023-03-18T12:50:20.013Z,100908.34
2023-03-18T12:52:58.973Z,100912.53
2023-03-18T12:55:33.753Z,100922.72
2023-03-18T12:58:05.903Z,100916.56
2023-03-18T13:00:40.134Z,100925.13
2023-03-18T13:03:24.736Z,100915.72
2023-03-18T13:06:08.701Z,100919.94
2023-03-18T13:08:43.940Z,100913.19
2023-03-18T13:11:32.338Z,100907.13
2023-03-18T13:14:07.381Z,100906.03
2023-03-18T13:16:36.690Z,100901.69
2023-03-18T13:19:04.804Z,100907.56
2023-03-18T13:21:40.181Z,100909.84
2023-03-18T13:24:21.923Z,100886.06
2023-03-18T13:26:52.401Z,100898.78
2023-03-18T13:29:38.482Z,100903.59
2023-03-18T13:32:55.788Z,100905.41
2023-03-18T13:35:28.978Z,100888.34
2023-03-18T13:38:17.463Z,100890.63
2023-03-18T13:41:22.470Z,100892.66
2023-03-18T13:43:51.275Z,100893.66
2023-03-18T13:46:27.460Z,100891.03
2023-03-18T13:49:01.236Z,100887.63
2023-03-18T13:51:28.830Z,100889.16
2023-03-18T13:54:06.818Z,100887.56
2023-03-18T13:56:50.514Z,100885.44
2023-03-18T13:59:33.087Z,100877.56
2023-03-18T14:02:23.075Z,100880.88
2023-03-18T14:04:52.144Z,100871.72
2023-03-18T14:07:21.711Z,100876.03
2023-03-18T14:10:18.795Z,100870.84
2023-03-18T14:12:48.067Z,100867.03
2023-03-18T14:15:15.798Z,100863.28
2023-03-18T14:17:58.383Z,100868.91
2023-03-18T14:20:38.605Z,100854.69
2023-03-18T14:23:24.320Z,100861.06
2023-03-18T14:26:02.459Z,100849.59
2023-03-18T14:28:42.003Z,100863.28
2023-03-18T14:31:21.243Z,100858.97
2023-03-18T14:34:04.565Z,100852.22
2023-03-18T14:36:53.395Z,100865.38
2023-03-18T14:39:30.286Z,100863.41
2023-03-18T14:42:01.987Z,100858.03
2023-03-18T14:45:01.757Z,100862.41
2023-03-18T14:47:57.910Z,100852.00
2023-03-18T14:50:35.508Z,100842.06
2023-03-18T14:53:05.608Z,100841.66
2023-03-18T14:55:35.846Z,100831.06
2023-03-18T14:58:04.074Z,100839.38
2023-03-18T15:00:36.907Z,100844.22
2023-03-18T15:03:13.339Z,100830.44
2023-03-18T15:05:43.274Z,100839.38
2023-03-18T15:08:19.186Z,100835.66
2023-03-18T15:10:50.444Z,100831.63
2023-03-18T15:13:21.299Z,100834.38
2023-03-18T15:15:50.644Z,100832.25
2023-03-18T15:18:29.143Z,100834.91
2023-03-18T15:21:21.468Z,100848.31
2023-03-18T15:23:54.636Z,100834.44
2023-03-18T15:26:29.712Z,100832.88
2023-03-18T15:29:00.355Z,100831.47
2023-03-18T15:32:10.063Z,100837.06
2023-03-18T15:34:41.597Z,100817.59
2023-03-18T15:37:40.879Z,100814.31
2023-03-18T15:40:23.496Z,100831.16
2023-03-18T15:42:54.934Z,100827.59
2023-03-18T15:45:27.251Z,100822.22
2023-03-18T15:47:58.315Z,100817.88
2023-03-18T15:50:30.729Z,100806.69
2023-03-18T15:53:25.958Z,100816.72
2023-03-18T15:55:56.071Z,100817.50
2023-03-18T15:58:27.508Z,100818.53
2023-03-18T16:00:56.695Z,100818.59
2023-03-18T16:03:27.229Z,100809.34
2023-03-18T16:05:55.330Z,100819.47
2023-03-18T16:08:23.666Z,100810.81
2023-03-18T16:10:54.984Z,100801.34
2023-03-18T16:13:29.478Z,100814.44
2023-03-18T16:15:56.930Z,100820.59
2023-03-18T16:18:24.605Z,100818.94
2023-03-18T16:20:53.893Z,100826.41
2023-03-18T16:23:21.396Z,100821.44
2023-03-18T16:25:52.306Z,100825.09
2023-03-18T16:28:28.285Z,100840.94
2023-03-18T16:30:58.713Z,100843.69
2023-03-18T16:33:26.262Z,100834.41
2023-03-18T16:35:58.746Z,100844.97
2023-03-18T16:38:27.094Z,100838.72
2023-03-18T16:40:56.108Z,100849.59
2023-03-18T16:43:29.023Z,100837.56
2023-03-18T16:46:06.341Z,100847.56
2023-03-18T16:48:33.949Z,100857.47
2023-03-18T16:51:03.007Z,100855.59
2023-03-18T16:53:31.621Z,100846.13
2023-03-18T16:56:25.895Z,100867.66
2023-03-18T16:58:53.532Z,100857.16
2023-03-18T17:01:21.478Z,100866.09
2023-03-18T17:03:49.613Z,100870.72
2023-03-18T17:06:17.115Z,100877.09
2023-03-18T17:08:44.635Z,100872.84
2023-03-18T17:11:18.375Z,100884.50
2023-03-18T17:13:46.739Z,100886.75
2023-03-18T17:16:18.205Z,100897.41
2023-03-18T17:18:45.645Z,100896.53
2023-03-18T17:21:13.043Z,100896.03
2023-03-18T17:23:41.731Z,100896.81
2023-03-18T17:26:14.515Z,100897.88
2023-03-18T17:28:45.050Z,100912.38
2023-03-18T17:31:12.640Z,100907.31
2023-03-18T17:33:40.589Z,100901.28
2023-03-18T17:36:08.639Z,100908.97
2023-03-18T17:38:36.411Z,100910.81
2023-03-18T17:41:12.306Z,100899.47
2023-03-18T17:43:40.201Z,100894.53
2023-03-18T17:46:08.053Z,100913.03
2023-03-18T17:48:39.747Z,100918.38
2023-03-18T17:51:12.113Z,100920.31
2023-03-18T17:53:44.025Z,100914.31
2023-03-18T17:56:14.180Z,100913.44
2023-03-18T17:58:47.195Z,100920.66
2023-03-18T18:01:17.656Z,100922.63
2023-03-18T18:03:45.466Z,100926.56
2023-03-18T18:06:21.078Z,100930.22
2023-03-18T18:08:49.283Z,100929.38
2023-03-18T18:11:35.336Z,100924.34
2023-03-18T18:14:14.901Z,100925.47
2023-03-18T18:16:43.645Z,100926.47
2023-03-18T18:19:11.659Z,100934.50
2023-03-18T18:21:39.262Z,100946.25
2023-03-18T18:24:33.513Z,100953.41
2023-03-18T18:27:00.953Z,100969.59
2023-03-18T18:29:29.697Z,100952.16
2023-03-18T18:31:57.427Z,100968.16
2023-03-18T18:34:24.939Z,100967.28
2023-03-18T18:36:52.388Z,100976.16
2023-03-18T18:39:21.086Z,100980.25
2023-03-18T18:41:48.894Z,100976.69
2023-03-18T18:44:16.506Z,100991.88
2023-03-18T18:46:43.987Z,100994.22
2023-03-18T18:49:23.216Z,100985.53
2023-03-18T18:51:55.245Z,100999.66
2023-03-18T18:54:24.044Z,100993.47
2023-03-18T18:56:52.264Z,100998.13
2023-03-18T18:59:24.881Z,101003.69
2023-03-18T19:01:53.790Z,101013.13
2023-03-18T19:04:21.980Z,101018.19
2023-03-18T19:06:51.003Z,101021.44
2023-03-18T19:09:20.904Z,101004.00
2023-03-18T19:11:50.193Z,101004.88
2023-03-18T19:14:19.268Z,101010.16
2023-03-18T19:16:48.257Z,101005.13
2023-03-18T19:19:19.337Z,101013.19
2023-03-18T19:21:47.187Z,101011.66
2023-03-18T19:24:26.936Z,101018.72
2023-03-18T19:26:56.411Z,101033.88
2023-03-18T19:29:24.139Z,101025.94
2023-03-18T19:31:51.696Z,101024.25
2023-03-18T19:34:20.870Z,101023.72
2023-03-18T19:36:52.783Z,101011.88
2023-03-18T19:39:22.090Z,101028.16
2023-03-18T19:41:49.558Z,101031.72
2023-03-18T19:44:19.239Z,101041.06
2023-03-18T19:46:48.437Z,101041.03
2023-03-18T19:49:26.450Z,101039.50
2023-03-18T19:51:55.395Z,101037.84
2023-03-18T19:54:35.514Z,101050.97
2023-03-18T19:57:06.905Z,101050.88
2023-03-18T19:59:39.183Z,101057.91
2023-03-18T20:02:32.585Z,101051.94
2023-03-18T20:05:03.004Z,101045.69
2023-03-18T20:07:32.836Z,101022.00
2023-03-18T20:10:00.356Z,101020.66
2023-03-18T20:12:36.640Z,101031.41
2023-03-18T20:15:12.218Z,101028.84
2023-03-18T20:17:44.891Z,101025.44
2023-03-18T20:20:18.100Z,101032.38
2023-03-18T20:22:58.556Z,101047.00
2023-03-18T20:25:29.255Z,101053.72
2023-03-18T20:27:58.083Z,101054.66
2023-03-18T20:30:31.812Z,101052.09
2023-03-18T20:33:00.600Z,101063.09
2023-03-18T20:35:30.346Z,101050.72
2023-03-18T20:38:00.853Z,101059.34
2023-03-18T20:40:29.946Z,101061.97
2023-03-18T20:42:57.689Z,101055.97
2023-03-18T20:45:26.271Z,101070.13
2023-03-18T20:47:53.638Z,101057.06
2023-03-18T20:50:26.509Z,101071.13
2023-03-18T20:52:54.489Z,101058.06
2023-03-18T20:55:26.737Z,101064.19
2023-03-18T20:57:54.467Z,101063.25
2023-03-18T21:00:24.640Z,101047.44
2023-03-18T21:02:54.264Z,101047.53
2023-03-18T21:05:22.120Z,101056.31
2023-03-18T21:07:49.524Z,101057.50
2023-03-18T21:10:22.735Z,101060.25
2023-03-18T21:12:50.980Z,101080.50
2023-03-18T21:15:24.817Z,101068.81
2023-03-18T21:17:52.811Z,101053.03
2023-03-18T21:20:25.731Z,101073.50
2023-03-18T21:22:54.465Z,101062.03
2023-03-18T21:25:27.700Z,101059.19
2023-03-18T21:27:55.336Z,101068.94
2023-03-18T21:30:23.932Z,101075.19
2023-03-18T21:32:51.617Z,101064.41
2023-03-18T21:35:25.697Z,101060.81
2023-03-18T21:37:54.202Z,101069.97
2023-03-18T21:40:23.885Z,101075.28
2023-03-18T21:42:51.714Z,101056.47
2023-03-18T21:45:21.371Z,101069.69
2023-03-18T21:47:48.794Z,101066.38
2023-03-18T21:50:25.225Z,101052.22
2023-03-18T21:52:54.207Z,101053.88
2023-03-18T21:55:22.268Z,101042.75
2023-03-18T21:57:49.789Z,101054.38
2023-03-18T22:00:20.227Z,101055.41
2023-03-18T22:02:48.442Z,101048.31
2023-03-18T22:05:19.654Z,101058.16
2023-03-18T22:07:47.777Z,101064.38
2023-03-18T22:10:17.552Z,101068.50
2023-03-18T22:12:45.548Z,101053.47
2023-03-18T22:15:24.711Z,101070.38
2023-03-18T22:17:52.476Z,101051.75
2023-03-18T22:20:19.915Z,101065.03
2023-03-18T22:22:47.476Z,101060.75
2023-03-18T22:25:32.896Z,101059.69
2023-03-18T22:28:00.933Z,101051.72
2023-03-18T22:30:30.917Z,101036.72
2023-03-18T22:33:00.129Z,101038.41
2023-03-18T22:35:29.342Z,101041.09
2023-03-18T22:37:56.924Z,101036.75
2023-03-18T22:40:27.333Z,101051.84
2023-03-18T22:43:01.914Z,101051.28
2023-03-18T22:45:32.246Z,101055.91
2023-03-18T22:48:02.572Z,101066.94
2023-03-18T22:50:32.247Z,101051.13
2023-03-18T22:53:03.532Z,101060.78
2023-03-18T22:55:37.085Z,101067.19
2023-03-18T22:58:04.654Z,101053.22
2023-03-18T23:00:43.636Z,101071.72
2023-03-18T23:03:20.364Z,101056.94
2023-03-18T23:05:50.477Z,101074.69
2023-03-18T23:08:19.531Z,101061.69
2023-03-18T23:10:48.185Z,101071.22
2023-03-18T23:13:26.164Z,101074.09
2023-03-18T23:15:54.079Z,101060.25
2023-03-18T23:18:21.603Z,101054.38
2023-03-18T23:20:50.400Z,101061.53
2023-03-18T23:23:18.758Z,101058.00
2023-03-18T23:25:46.645Z,101062.50
2023-03-18T23:28:14.764Z,101047.75
2023-03-18T23:30:43.900Z,101061.06
2023-03-18T23:33:11.692Z,101056.72
2023-03-18T23:35:39.538Z,101063.81
2023-03-18T23:38:07.307Z,101068.22
2023-03-18T23:40:34.635Z,101079.81
2023-03-18T23:43:02.101Z,101086.91
2023-03-18T23:45:29.717Z,101091.28
2023-03-18T23:47:57.574Z,101088.75
2023-03-18T23:50:24.930Z,101094.94
2023-03-18T23:52:52.363Z,101085.31
2023-03-18T23:55:45.464Z,101068.25
2023-03-18T23:58:07.199Z,101070.94
